sensor_id;sensor_type;location;lat;lon;timestamp;pressure;altitude;pressure_sealevel;temperature;humidity
63194;BME280;49289;51.670;5.624;2023-12-20T00:00:13;101787.34;;;11.01;100.00
63194;BME280;49289;51.670;5.624;2023-12-20T00:02:00;101761.98;;;10.72;97.70
63194;BME280;49289;51.670;5.624;2023-12-20T00:03:47;101792.85;;;10.36;100.00
63194;BME280;49289;51.670;5.624;2023-12-20T00:05:34;101797.54;;;10.85;100.00
63194;BME280;49289;51.670;5.624;2023-12-20T00:07:21;101797.22;;;10.87;99.73
63194;BME280;49289;51.670;5.624;2023-12-20T00:09:08;101793.80;;;11.19;96.89
63194;BME280;49289;51.670;5.624;2023-12-20T00:10:54;101788.89;;;10.31;99.99
63194;BME280;49289;51.670;5.624;2023-12-20T00:12:41;101799.16;;;10.64;100.00
63194;BME280;49289;51.670;5.624;2023-12-20T00:14:28;101775.92;;;10.89;99.32
63194;BME280;49289;51.670;5.624;2023-12-20T00:16:16;101798.99;;;10.55;96.41
63194;BME280;49289;51.670;5.624;2023-12-20T00:18:03;101790.81;;;10.68;99.40
63194;BME280;49289;51.670;5.624;2023-12-20T00:19:50;101793.50;;;10.00;100.00
63194;BME280;49289;51.670;5.624;2023-12-20T00:21:36;101794.52;;;10.60;100.00
63194;BME280;49289;51.670;5.624;2023-12-20T00:23:23;101793.87;;;10.20;100.00
63194;BME280;49289;51.670;5.624;2023-12-20T00:25:11;101795.06;;;10.07;100.00
63194;BME280;49289;51.670;5.624;2023-12-20T00:26:58;101794.06;;;10.72;100.00
63194;BME280;49289;51.670;5.624;2023-12-20T00:28:45;101789.63;;;10.94;98.61
63194;BME280;49289;51.670;5.624;2023-12-20T00:30:32;101787.06;;;11.02;96.22
63194;BME280;49289;51.670;5.624;2023-12-20T00:32:19;101761.44;;;10.11;98.04
63194;BME280;49289;51.670;5.624;2023-12-20T00:34:06;101790.20;;;10.24;99.51
63194;BME280;49289;51.670;5.624;2023-12-20T00:35:53;101790.84;;;10.48;100.00
63194;BME280;49289;51.670;5.624;2023-12-20T00:37:40;101747.08;;;10.71;99.38
63194;BME280;49289;51.670;5.624;2023-12-20T00:39:26;101750.62;;;10.29;98.70
63194;BME280;49289;51.670;5.624;2023-12-20T00:41:14;101751.98;;;10.92;98.86
63194;BME280;49289;51.670;5.624;2023-12-20T00:43:01;101755.66;;;11.31;95.22
63194;BME280;49289;51.670;5.624;2023-12-20T00:44:48;101782.66;;;10.82;94.11
63194;BME280;49289;51.670;5.624;2023-12-20T00:46:35;101783.35;;;11.25;94.75
63194;BME280;49289;51.670;5.624;2023-12-20T00:48:22;101781.11;;;10.97;93.74
63194;BME280;49289;51.670;5.624;2023-12-20T00:50:09;101776.45;;;10.57;97.64
63194;BME280;49289;51.670;5.624;2023-12-20T00:51:56;101780.99;;;11.27;94.28
63194;BME280;49289;51.670;5.624;2023-12-20T00:53:43;101768.32;;;11.58;91.58
63194;BME280;49289;51.670;5.624;2023-12-20T00:55:30;101783.03;;;10.68;92.43
63194;BME280;49289;51.670;5.624;2023-12-20T00:57:17;101784.35;;;10.51;95.50
63194;BME280;49289;51.670;5.624;2023-12-20T00:59:04;101786.94;;;11.14;94.00
63194;BME280;49289;51.670;5.624;2023-12-20T01:00:51;101775.44;;;11.17;90.85
63194;BME280;49289;51.670;5.624;2023-12-20T01:02:38;101777.17;;;10.61;93.27
63194;BME280;49289;51.670;5.624;2023-12-20T01:04:25;101782.31;;;10.37;94.19
63194;BME280;49289;51.670;5.624;2023-12-20T01:06:11;101778.69;;;10.07;97.71
63194;BME280;49289;51.670;5.624;2023-12-20T01:07:58;101776.69;;;11.08;95.68
63194;BME280;49289;51.670;5.624;2023-12-20T01:09:45;101770.78;;;10.56;92.90
63194;BME280;49289;51.670;5.624;2023-12-20T01:11:32;101781.95;;;10.58;94.77
63194;BME280;49289;51.670;5.624;2023-12-20T01:13:19;101782.40;;;10.53;95.23
63194;BME280;49289;51.670;5.624;2023-12-20T01:15:06;101781.25;;;9.88;96.29
63194;BME280;49289;51.670;5.624;2023-12-20T01:16:53;101779.72;;;9.91;96.85
63194;BME280;49289;51.670;5.624;2023-12-20T01:18:39;101771.03;;;10.70;96.76
63194;BME280;49289;51.670;5.624;2023-12-20T01:20:26;101777.97;;;10.97;94.05
63194;BME280;49289;51.670;5.624;2023-12-20T01:22:13;101783.50;;;10.21;94.95
63194;BME280;49289;51.670;5.624;2023-12-20T01:24:00;101786.42;;;10.83;93.43
63194;BME280;49289;51.670;5.624;2023-12-20T01:25:47;101785.88;;;10.38;93.97
63194;BME280;49289;51.670;5.624;2023-12-20T01:27:34;101778.23;;;10.46;94.59
63194;BME280;49289;51.670;5.624;2023-12-20T01:29:21;101776.25;;;10.28;94.19
63194;BME280;49289;51.670;5.624;2023-12-20T01:31:08;101779.17;;;10.86;93.79
63194;BME280;49289;51.670;5.624;2023-12-20T01:32:55;101776.45;;;11.17;90.98
63194;BME280;49289;51.670;5.624;2023-12-20T01:34:42;101758.08;;;10.62;93.40
63194;BME280;49289;51.670;5.624;2023-12-20T01:36:29;101777.69;;;10.48;92.45
63194;BME280;49289;51.670;5.624;2023-12-20T01:38:16;101779.72;;;10.18;94.87
63194;BME280;49289;51.670;5.624;2023-12-20T01:40:03;101729.78;;;10.88;92.81
63194;BME280;49289;51.670;5.624;2023-12-20T01:41:50;101775.75;;;10.81;92.68
63194;BME280;49289;51.670;5.624;2023-12-20T01:43:37;101750.77;;;10.07;93.01
63194;BME280;49289;51.670;5.624;2023-12-20T01:45:24;101777.61;;;10.93;93.94
63194;BME280;49289;51.670;5.624;2023-12-20T01:47:11;101754.34;;;10.71;92.19
63194;BME280;49289;51.670;5.624;2023-12-20T01:48:58;101776.52;;;10.32;93.25
63194;BME280;49289;51.670;5.624;2023-12-20T01:50:45;101781.40;;;10.54;93.38
63194;BME280;49289;51.670;5.624;2023-12-20T01:52:32;101753.83;;;9.98;94.94
63194;BME280;49289;51.670;5.624;2023-12-20T01:54:18;101780.84;;;10.47;94.19
63194;BME280;49289;51.670;5.624;2023-12-20T01:56:05;101781.89;;;10.57;94.25
63194;BME280;49289;51.670;5.624;2023-12-20T01:57:52;101781.01;;;10.36;92.56
63194;BME280;49289;51.670;5.624;2023-12-20T01:59:39;101761.59;;;10.42;94.28
63194;BME280;49289;51.670;5.624;2023-12-20T02:01:26;101786.77;;;10.69;90.95
63194;BME280;49289;51.670;5.624;2023-12-20T02:03:14;101747.31;;;10.52;91.40
63194;BME280;49289;51.670;5.624;2023-12-20T02:05:00;101787.03;;;11.24;89.98
63194;BME280;49289;51.670;5.624;2023-12-20T02:06:47;101778.91;;;10.32;91.29
63194;BME280;49289;51.670;5.624;2023-12-20T02:08:35;101784.59;;;11.23;88.72
63194;BME280;49289;51.670;5.624;2023-12-20T02:10:22;101792.41;;;11.12;86.98
63194;BME280;49289;51.670;5.624;2023-12-20T02:12:09;101792.09;;;11.33;86.62
63194;BME280;49289;51.670;5.624;2023-12-20T02:13:56;101761.06;;;11.57;85.65
63194;BME280;49289;51.670;5.624;2023-12-20T02:15:43;101792.15;;;10.95;87.07
63194;BME280;49289;51.670;5.624;2023-12-20T02:17:30;101774.20;;;10.78;87.46
63194;BME280;49289;51.670;5.624;2023-12-20T02:19:16;101798.64;;;10.86;89.35
63194;BME280;49289;51.670;5.624;2023-12-20T02:21:03;101771.27;;;11.02;87.04
63194;BME280;49289;51.670;5.624;2023-12-20T02:22:50;101787.98;;;10.79;87.55
63194;BME280;49289;51.670;5.624;2023-12-20T02:24:37;101787.69;;;11.27;87.80
63194;BME280;49289;51.670;5.624;2023-12-20T02:26:24;101784.58;;;11.08;86.94
63194;BME280;49289;51.670;5.624;2023-12-20T02:28:11;101783.42;;;10.62;91.01
63194;BME280;49289;51.670;5.624;2023-12-20T02:29:58;101780.75;;;11.33;87.68
63194;BME280;49289;51.670;5.624;2023-12-20T02:31:45;101776.83;;;11.12;87.46
63194;BME280;49289;51.670;5.624;2023-12-20T02:33:32;101780.58;;;10.92;87.84
63194;BME280;49289;51.670;5.624;2023-12-20T02:35:19;101782.65;;;10.57;88.93
63194;BME280;49289;51.670;5.624;2023-12-20T02:37:06;101786.65;;;9.99;91.09
63194;BME280;49289;51.670;5.624;2023-12-20T02:38:53;101768.87;;;10.34;91.52
63194;BME280;49289;51.670;5.624;2023-12-20T02:40:40;101780.25;;;10.17;92.01
63194;BME280;49289;51.670;5.624;2023-12-20T02:42:27;101786.55;;;10.32;92.59
63194;BME280;49289;51.670;5.624;2023-12-20T02:44:14;101768.02;;;10.25;93.12
63194;BME280;49289;51.670;5.624;2023-12-20T02:46:01;101761.35;;;9.91;93.05
63194;BME280;49289;51.670;5.624;2023-12-20T02:47:48;101786.61;;;10.78;90.34
63194;BME280;49289;51.670;5.624;2023-12-20T02:49:35;101779.73;;;11.23;88.11
63194;BME280;49289;51.670;5.624;2023-12-20T02:51:22;101776.06;;;11.16;87.86
63194;BME280;49289;51.670;5.624;2023-12-20T02:53:09;101773.81;;;11.40;86.27
63194;BME280;49289;51.670;5.624;2023-12-20T02:54:56;101747.13;;;11.07;85.71
63194;BME280;49289;51.670;5.624;2023-12-20T02:56:43;101777.10;;;10.95;86.08
63194;BME280;49289;51.670;5.624;2023-12-20T02:58:30;101776.80;;;10.71;88.73
63194;BME280;49289;51.670;5.624;2023-12-20T03:00:18;101771.45;;;10.89;89.51
63194;BME280;49289;51.670;5.624;2023-12-20T03:02:05;101760.84;;;10.61;88.97
63194;BME280;49289;51.670;5.624;2023-12-20T03:03:52;101747.22;;;10.92;88.59
63194;BME280;49289;51.670;5.624;2023-12-20T03:05:39;101772.82;;;10.52;90.62
63194;BME280;49289;51.670;5.624;2023-12-20T03:07:26;101765.60;;;10.11;91.37
63194;BME280;49289;51.670;5.624;2023-12-20T03:09:13;101765.42;;;10.96;90.23
63194;BME280;49289;51.670;5.624;2023-12-20T03:11:00;101736.10;;;10.04;91.06
63194;BME280;49289;51.670;5.624;2023-12-20T03:12:47;101709.67;;;9.66;92.47
63194;BME280;49289;51.670;5.624;2023-12-20T03:14:34;101756.05;;;10.27;92.31
63194;BME280;49289;51.670;5.624;2023-12-20T03:16:21;101749.39;;;10.38;92.60
63194;BME280;49289;51.670;5.624;2023-12-20T03:18:08;101729.25;;;10.12;92.37
63194;BME280;49289;51.670;5.624;2023-12-20T03:19:55;101761.03;;;10.80;91.22
63194;BME280;49289;51.670;5.624;2023-12-20T03:21:42;101754.33;;;10.28;91.68
63194;BME280;49289;51.670;5.624;2023-12-20T03:23:29;101728.89;;;10.44;90.52
63194;BME280;49289;51.670;5.624;2023-12-20T03:25:16;101752.65;;;10.73;91.56
63194;BME280;49289;51.670;5.624;2023-12-20T03:27:03;101752.30;;;10.53;90.63
63194;BME280;49289;51.670;5.624;2023-12-20T03:28:50;101723.25;;;10.03;90.34
63194;BME280;49289;51.670;5.624;2023-12-20T03:30:37;101728.06;;;9.65;94.06
63194;BME280;49289;51.670;5.624;2023-12-20T03:32:24;101748.98;;;10.40;92.85
63194;BME280;49289;51.670;5.624;2023-12-20T03:34:11;101754.06;;;10.49;91.87
63194;BME280;49289;51.670;5.624;2023-12-20T03:35:58;101749.78;;;10.77;89.80
63194;BME280;49289;51.670;5.624;2023-12-20T03:37:45;101750.00;;;10.66;88.15
63194;BME280;49289;51.670;5.624;2023-12-20T03:39:32;101751.12;;;10.21;91.90
63194;BME280;49289;51.670;5.624;2023-12-20T03:41:19;101740.67;;;10.03;93.69
63194;BME280;49289;51.670;5.624;2023-12-20T03:43:06;101700.49;;;10.06;92.39
63194;BME280;49289;51.670;5.624;2023-12-20T03:44:53;101706.72;;;10.08;93.71
63194;BME280;49289;51.670;5.624;2023-12-20T03:46:40;101726.66;;;9.73;95.10
63194;BME280;49289;51.670;5.624;2023-12-20T03:48:27;101702.91;;;10.39;93.86
63194;BME280;49289;51.670;5.624;2023-12-20T03:50:14;101708.48;;;10.65;90.98
63194;BME280;49289;51.670;5.624;2023-12-20T03:52:01;101727.92;;;10.72;90.78
63194;BME280;49289;51.670;5.624;2023-12-20T03:53:48;101713.70;;;10.84;89.63
63194;BME280;49289;51.670;5.624;2023-12-20T03:55:35;101737.84;;;11.06;89.68
63194;BME280;49289;51.670;5.624;2023-12-20T03:57:22;101746.09;;;11.00;88.28
63194;BME280;49289;51.670;5.624;2023-12-20T03:59:09;101749.66;;;10.96;89.85
63194;BME280;49289;51.670;5.624;2023-12-20T04:00:56;101735.95;;;11.45;87.07
63194;BME280;49289;51.670;5.624;2023-12-20T04:02:43;101743.03;;;11.39;86.63
63194;BME280;49289;51.670;5.624;2023-12-20T04:04:30;101735.63;;;10.45;89.04
63194;BME280;49289;51.670;5.624;2023-12-20T04:06:21;101754.06;;;11.12;88.66
63194;BME280;49289;51.670;5.624;2023-12-20T04:08:09;101752.27;;;11.06;87.71
63194;BME280;49289;51.670;5.624;2023-12-20T04:09:56;101730.36;;;11.01;88.18
63194;BME280;49289;51.670;5.624;2023-12-20T04:11:43;101737.12;;;11.33;87.36
63194;BME280;49289;51.670;5.624;2023-12-20T04:13:30;101718.77;;;11.00;86.71
63194;BME280;49289;51.670;5.624;2023-12-20T04:15:17;101740.39;;;11.05;88.00
63194;BME280;49289;51.670;5.624;2023-12-20T04:17:05;101749.32;;;10.79;89.41
63194;BME280;49289;51.670;5.624;2023-12-20T04:18:51;101730.61;;;10.35;91.74
63194;BME280;49289;51.670;5.624;2023-12-20T04:20:38;101749.13;;;10.68;90.84
63194;BME280;49289;51.670;5.624;2023-12-20T04:22:25;101751.66;;;11.02;89.41
63194;BME280;49289;51.670;5.624;2023-12-20T04:24:12;101734.55;;;11.37;87.68
63194;BME280;49289;51.670;5.624;2023-12-20T04:25:59;101722.44;;;10.87;89.53
63194;BME280;49289;51.670;5.624;2023-12-20T04:27:46;101743.16;;;11.06;90.08
63194;BME280;49289;51.670;5.624;2023-12-20T04:29:33;101739.50;;;11.00;88.36
63194;BME280;49289;51.670;5.624;2023-12-20T04:31:20;101739.81;;;11.26;90.39
63194;BME280;49289;51.670;5.624;2023-12-20T04:33:07;101734.58;;;10.43;90.93
63194;BME280;49289;51.670;5.624;2023-12-20T04:34:54;101735.05;;;11.09;92.54
63194;BME280;49289;51.670;5.624;2023-12-20T04:36:41;101744.66;;;10.24;92.22
63194;BME280;49289;51.670;5.624;2023-12-20T04:38:28;101741.86;;;11.08;91.21
63194;BME280;49289;51.670;5.624;2023-12-20T04:40:16;101743.28;;;11.15;89.36
63194;BME280;49289;51.670;5.624;2023-12-20T04:42:03;101739.02;;;11.12;89.12
63194;BME280;49289;51.670;5.624;2023-12-20T04:43:50;101714.41;;;10.41;90.23
63194;BME280;49289;51.670;5.624;2023-12-20T04:45:37;101739.63;;;10.81;92.95
63194;BME280;49289;51.670;5.624;2023-12-20T04:47:24;101740.36;;;10.67;90.67
63194;BME280;49289;51.670;5.624;2023-12-20T04:49:11;101745.17;;;11.71;88.63
63194;BME280;49289;51.670;5.624;2023-12-20T04:50:58;101715.67;;;11.49;87.23
63194;BME280;49289;51.670;5.624;2023-12-20T04:52:45;101755.30;;;10.64;88.98
63194;BME280;49289;51.670;5.624;2023-12-20T04:54:32;101754.84;;;10.71;91.15
63194;BME280;49289;51.670;5.624;2023-12-20T04:56:19;101753.13;;;11.58;87.36
63194;BME280;49289;51.670;5.624;2023-12-20T04:58:06;101747.66;;;10.76;89.28
63194;BME280;49289;51.670;5.624;2023-12-20T04:59:53;101734.41;;;11.15;88.62
63194;BME280;49289;51.670;5.624;2023-12-20T05:01:40;101757.43;;;11.32;88.87
63194;BME280;49289;51.670;5.624;2023-12-20T05:03:27;101733.27;;;10.65;91.49
63194;BME280;49289;51.670;5.624;2023-12-20T05:05:14;101760.55;;;10.92;91.88
63194;BME280;49289;51.670;5.624;2023-12-20T05:07:01;101759.28;;;11.23;91.07
63194;BME280;49289;51.670;5.624;2023-12-20T05:10:49;101743.23;;;11.39;88.79
63194;BME280;49289;51.670;5.624;2023-12-20T05:12:36;101736.50;;;11.68;87.59
63194;BME280;49289;51.670;5.624;2023-12-20T05:14:23;101703.02;;;11.66;85.82
63194;BME280;49289;51.670;5.624;2023-12-20T05:16:11;101729.23;;;12.35;84.51
63194;BME280;49289;51.670;5.624;2023-12-20T05:17:57;101719.74;;;10.73;88.22
63194;BME280;49289;51.670;5.624;2023-12-20T05:19:44;101732.72;;;10.89;89.87
63194;BME280;49289;51.670;5.624;2023-12-20T05:21:31;101725.36;;;11.31;88.41
63194;BME280;49289;51.670;5.624;2023-12-20T05:23:18;101731.53;;;11.16;89.69
63194;BME280;49289;51.670;5.624;2023-12-20T05:25:05;101724.61;;;11.50;89.09
63194;BME280;49289;51.670;5.624;2023-12-20T05:26:52;101698.83;;;11.36;87.68
63194;BME280;49289;51.670;5.624;2023-12-20T05:28:39;101724.33;;;11.46;87.68
63194;BME280;49289;51.670;5.624;2023-12-20T05:30:26;101729.10;;;10.98;89.91
63194;BME280;49289;51.670;5.624;2023-12-20T05:32:13;101723.73;;;11.44;87.64
63194;BME280;49289;51.670;5.624;2023-12-20T05:34:00;101724.07;;;11.85;85.53
63194;BME280;49289;51.670;5.624;2023-12-20T05:35:47;101719.67;;;11.78;86.21
63194;BME280;49289;51.670;5.624;2023-12-20T05:37:34;101725.46;;;11.59;85.81
63194;BME280;49289;51.670;5.624;2023-12-20T05:39:21;101726.14;;;11.32;87.69
63194;BME280;49289;51.670;5.624;2023-12-20T05:41:08;101723.97;;;12.25;85.43
63194;BME280;49289;51.670;5.624;2023-12-20T05:42:55;101704.00;;;11.02;88.66
63194;BME280;49289;51.670;5.624;2023-12-20T05:44:42;101700.27;;;11.10;89.73
63194;BME280;49289;51.670;5.624;2023-12-20T05:46:29;101705.69;;;11.89;86.99
63194;BME280;49289;51.670;5.624;2023-12-20T05:48:17;101717.65;;;12.25;84.24
63194;BME280;49289;51.670;5.624;2023-12-20T05:50:04;101722.82;;;11.55;84.66
63194;BME280;49289;51.670;5.624;2023-12-20T05:51:50;101715.88;;;11.31;87.66
63194;BME280;49289;51.670;5.624;2023-12-20T05:53:37;101724.34;;;10.88;89.43
63194;BME280;49289;51.670;5.624;2023-12-20T05:55:25;101695.76;;;11.19;88.93
63194;BME280;49289;51.670;5.624;2023-12-20T05:57:12;101728.30;;;10.94;89.25
63194;BME280;49289;51.670;5.624;2023-12-20T05:58:58;101734.91;;;11.02;89.97
63194;BME280;49289;51.670;5.624;2023-12-20T06:00:45;101738.06;;;10.64;92.72
63194;BME280;49289;51.670;5.624;2023-12-20T06:02:32;101737.82;;;10.83;91.99
63194;BME280;49289;51.670;5.624;2023-12-20T06:04:19;101729.38;;;11.31;88.80
63194;BME280;49289;51.670;5.624;2023-12-20T06:06:10;101717.00;;;10.20;91.80
63194;BME280;49289;51.670;5.624;2023-12-20T06:07:57;101718.83;;;10.89;91.74
63194;BME280;49289;51.670;5.624;2023-12-20T06:09:44;101736.64;;;10.15;93.60
63194;BME280;49289;51.670;5.624;2023-12-20T06:11:31;101744.98;;;10.99;93.08
63194;BME280;49289;51.670;5.624;2023-12-20T06:13:18;101744.75;;;10.77;91.17
63194;BME280;49289;51.670;5.624;2023-12-20T06:15:05;101721.23;;;10.20;91.50
63194;BME280;49289;51.670;5.624;2023-12-20T06:16:53;101723.52;;;10.76;91.38
63194;BME280;49289;51.670;5.624;2023-12-20T06:18:39;101730.55;;;10.58;90.50
63194;BME280;49289;51.670;5.624;2023-12-20T06:20:26;101750.50;;;10.34;92.03
63194;BME280;49289;51.670;5.624;2023-12-20T06:22:14;101744.52;;;10.92;91.65
63194;BME280;49289;51.670;5.624;2023-12-20T06:24:01;101727.77;;;10.37;90.17
63194;BME280;49289;51.670;5.624;2023-12-20T06:25:48;101749.53;;;11.12;90.24
63194;BME280;49289;51.670;5.624;2023-12-20T06:27:35;101755.86;;;10.54;89.60
63194;BME280;49289;51.670;5.624;2023-12-20T06:29:22;101716.17;;;10.57;90.14
63194;BME280;49289;51.670;5.624;2023-12-20T06:31:09;101747.11;;;10.72;90.83
63194;BME280;49289;51.670;5.624;2023-12-20T06:32:55;101746.14;;;11.18;90.38
63194;BME280;49289;51.670;5.624;2023-12-20T06:34:42;101744.08;;;10.85;88.88
63194;BME280;49289;51.670;5.624;2023-12-20T06:36:29;101743.45;;;11.00;88.84
63194;BME280;49289;51.670;5.624;2023-12-20T06:38:17;101737.81;;;11.34;88.76
63194;BME280;49289;51.670;5.624;2023-12-20T06:40:03;101732.88;;;11.68;86.46
63194;BME280;49289;51.670;5.624;2023-12-20T06:41:50;101709.12;;;11.59;83.68
63194;BME280;49289;51.670;5.624;2023-12-20T06:43:37;101722.06;;;10.99;85.98
63194;BME280;49289;51.670;5.624;2023-12-20T06:45:24;101722.05;;;10.76;88.18
63194;BME280;49289;51.670;5.624;2023-12-20T06:47:11;101746.52;;;11.11;90.32
63194;BME280;49289;51.670;5.624;2023-12-20T06:48:58;101740.55;;;11.31;86.85
63194;BME280;49289;51.670;5.624;2023-12-20T06:50:45;101740.16;;;11.47;86.97
63194;BME280;49289;51.670;5.624;2023-12-20T06:52:32;101739.86;;;11.40;85.76
63194;BME280;49289;51.670;5.624;2023-12-20T06:54:19;101749.44;;;11.15;86.76
63194;BME280;49289;51.670;5.624;2023-12-20T06:56:06;101750.25;;;11.10;87.88
63194;BME280;49289;51.670;5.624;2023-12-20T06:57:53;101745.43;;;11.27;87.71
63194;BME280;49289;51.670;5.624;2023-12-20T06:59:43;101735.95;;;11.47;86.59
63194;BME280;49289;51.670;5.624;2023-12-20T07:01:30;101731.48;;;11.35;86.23
63194;BME280;49289;51.670;5.624;2023-12-20T07:03:17;101736.66;;;11.06;87.44
63194;BME280;49289;51.670;5.624;2023-12-20T07:05:04;101732.89;;;11.16;85.82
63194;BME280;49289;51.670;5.624;2023-12-20T07:06:51;101729.06;;;11.55;85.90
63194;BME280;49289;51.670;5.624;2023-12-20T07:08:38;101730.09;;;10.79;88.16
63194;BME280;49289;51.670;5.624;2023-12-20T07:10:25;101732.80;;;10.74;88.20
63194;BME280;49289;51.670;5.624;2023-12-20T07:12:12;101741.70;;;10.77;88.45
63194;BME280;49289;51.670;5.624;2023-12-20T07:13:59;101719.31;;;10.36;90.48
63194;BME280;49289;51.670;5.624;2023-12-20T07:15:46;101717.22;;;10.48;89.96
63194;BME280;49289;51.670;5.624;2023-12-20T07:17:33;101717.33;;;10.66;89.71
63194;BME280;49289;51.670;5.624;2023-12-20T07:19:20;101737.90;;;10.79;89.27
63194;BME280;49289;51.670;5.624;2023-12-20T07:21:08;101705.78;;;10.81;87.76
63194;BME280;49289;51.670;5.624;2023-12-20T07:22:55;101711.34;;;10.72;87.88
63194;BME280;49289;51.670;5.624;2023-12-20T07:24:42;101735.67;;;10.85;88.70
63194;BME280;49289;51.670;5.624;2023-12-20T07:26:29;101714.41;;;10.57;88.74
63194;BME280;49289;51.670;5.624;2023-12-20T07:28:16;101734.48;;;10.31;89.20
63194;BME280;49289;51.670;5.624;2023-12-20T07:30:03;101729.28;;;11.20;88.93
63194;BME280;49289;51.670;5.624;2023-12-20T07:31:50;101736.06;;;11.27;85.74
63194;BME280;49289;51.670;5.624;2023-12-20T07:33:37;101737.22;;;10.98;85.47
63194;BME280;49289;51.670;5.624;2023-12-20T07:35:24;101739.64;;;10.85;87.51
63194;BME280;49289;51.670;5.624;2023-12-20T07:37:11;101712.13;;;10.46;87.40
63194;BME280;49289;51.670;5.624;2023-12-20T07:38:58;101733.63;;;10.70;88.96
63194;BME280;49289;51.670;5.624;2023-12-20T07:40:45;101709.31;;;10.24;88.22
63194;BME280;49289;51.670;5.624;2023-12-20T07:42:32;101710.64;;;9.94;92.09
63194;BME280;49289;51.670;5.624;2023-12-20T07:44:19;101705.02;;;10.17;90.59
63194;BME280;49289;51.670;5.624;2023-12-20T07:46:09;101730.89;;;10.50;90.71
63194;BME280;49289;51.670;5.624;2023-12-20T07:47:57;101706.02;;;11.00;87.83
63194;BME280;49289;51.670;5.624;2023-12-20T07:49:43;101612.58;;;10.43;86.47
63194;BME280;49289;51.670;5.624;2023-12-20T07:51:30;101725.73;;;11.06;86.21
63194;BME280;49289;51.670;5.624;2023-12-20T07:53:17;101701.77;;;10.41;87.88
63194;BME280;49289;51.670;5.624;2023-12-20T07:55:04;101728.56;;;10.29;90.12
63194;BME280;49289;51.670;5.624;2023-12-20T07:56:51;101723.45;;;10.36;90.03
63194;BME280;49289;51.670;5.624;2023-12-20T07:58:38;101732.92;;;10.92;88.92
63194;BME280;49289;51.670;5.624;2023-12-20T08:00:26;101726.51;;;10.90;88.25
63194;BME280;49289;51.670;5.624;2023-12-20T08:02:13;101732.38;;;10.46;88.12
63194;BME280;49289;51.670;5.624;2023-12-20T08:04:00;101736.26;;;10.17;90.75
63194;BME280;49289;51.670;5.624;2023-12-20T08:05:47;101735.94;;;10.93;88.48
63194;BME280;49289;51.670;5.624;2023-12-20T08:07:34;101740.59;;;10.48;87.49
63194;BME280;49289;51.670;5.624;2023-12-20T08:09:21;101746.80;;;10.87;89.11
63194;BME280;49289;51.670;5.624;2023-12-20T08:11:08;101722.57;;;10.38;88.51
63194;BME280;49289;51.670;5.624;2023-12-20T08:12:55;101748.02;;;10.60;88.23
63194;BME280;49289;51.670;5.624;2023-12-20T08:14:42;101743.75;;;10.12;91.29
63194;BME280;49289;51.670;5.624;2023-12-20T08:16:29;101747.39;;;10.87;89.23
63194;BME280;49289;51.670;5.624;2023-12-20T08:18:16;101725.94;;;10.07;90.34
63194;BME280;49289;51.670;5.624;2023-12-20T08:20:03;101748.84;;;10.22;91.53
63194;BME280;49289;51.670;5.624;2023-12-20T08:21:50;101728.98;;;10.34;89.80
63194;BME280;49289;51.670;5.624;2023-12-20T08:23:37;101758.16;;;10.54;88.31
63194;BME280;49289;51.670;5.624;2023-12-20T08:25:24;101750.48;;;10.63;90.52
63194;BME280;49289;51.670;5.624;2023-12-20T08:27:11;101756.80;;;10.66;89.63
63194;BME280;49289;51.670;5.624;2023-12-20T08:28:58;101764.94;;;10.59;89.43
63194;BME280;49289;51.670;5.624;2023-12-20T08:30:45;101756.19;;;10.67;89.74
63194;BME280;49289;51.670;5.624;2023-12-20T08:32:32;101730.81;;;10.05;91.66
63194;BME280;49289;51.670;5.624;2023-12-20T08:34:19;101728.11;;;10.39;89.06
63194;BME280;49289;51.670;5.624;2023-12-20T08:36:06;101748.25;;;11.27;86.98
63194;BME280;49289;51.670;5.624;2023-12-20T08:37:53;101750.52;;;10.70;87.33
63194;BME280;49289;51.670;5.624;2023-12-20T08:39:40;101725.99;;;10.05;91.41
63194;BME280;49289;51.670;5.624;2023-12-20T08:41:27;101746.08;;;10.55;90.68
63194;BME280;49289;51.670;5.624;2023-12-20T08:43:14;101745.52;;;10.70;87.77
63194;BME280;49289;51.670;5.624;2023-12-20T08:45:01;101740.58;;;10.83;87.93
63194;BME280;49289;51.670;5.624;2023-12-20T08:46:48;101741.13;;;10.78;87.38
63194;BME280;49289;51.670;5.624;2023-12-20T08:48:35;101724.03;;;10.56;88.42
63194;BME280;49289;51.670;5.624;2023-12-20T08:50:23;101720.43;;;10.18;90.63
63194;BME280;49289;51.670;5.624;2023-12-20T08:52:10;101703.58;;;10.10;91.91
63194;BME280;49289;51.670;5.624;2023-12-20T08:53:57;101699.73;;;9.78;92.41
63194;BME280;49289;51.670;5.624;2023-12-20T08:55:43;101699.57;;;9.83;94.39
63194;BME280;49289;51.670;5.624;2023-12-20T08:57:30;101728.45;;;10.45;92.06
63194;BME280;49289;51.670;5.624;2023-12-20T08:59:17;101690.80;;;10.85;89.60
63194;BME280;49289;51.670;5.624;2023-12-20T09:01:04;101722.36;;;10.08;90.40
63194;BME280;49289;51.670;5.624;2023-12-20T09:02:51;101701.55;;;10.40;92.06
63194;BME280;49289;51.670;5.624;2023-12-20T09:04:38;101720.52;;;10.44;91.24
63194;BME280;49289;51.670;5.624;2023-12-20T09:06:25;101692.06;;;11.04;88.32
63194;BME280;49289;51.670;5.624;2023-12-20T09:08:14;101720.55;;;10.92;87.57
63194;BME280;49289;51.670;5.624;2023-12-20T09:10:01;101714.00;;;11.06;87.54
63194;BME280;49289;51.670;5.624;2023-12-20T09:11:48;101693.91;;;11.10;88.12
63194;BME280;49289;51.670;5.624;2023-12-20T09:13:35;101721.55;;;11.11;86.89
63194;BME280;49289;51.670;5.624;2023-12-20T09:15:22;101698.41;;;10.39;87.88
63194;BME280;49289;51.670;5.624;2023-12-20T09:17:09;101703.02;;;10.60;90.63
63194;BME280;49289;51.670;5.624;2023-12-20T09:18:56;101689.53;;;10.62;88.53
63194;BME280;49289;51.670;5.624;2023-12-20T09:20:43;101691.22;;;11.12;88.84